createdAt,value
2018-07-06T00:02:05.091Z,4.15
2018-07-06T00:04:44.300Z,5.05
2018-07-06T00:07:23.394Z,5.58
2018-07-06T00:10:02.256Z,5.30
2018-07-06T00:12:41.440Z,4.40
2018-07-06T00:15:14.580Z,5.12
2018-07-06T00:17:53.680Z,5.17
2018-07-06T00:20:32.618Z,5.17
2018-07-06T00:23:11.836Z,4.85
2018-07-06T00:25:50.792Z,3.83
2018-07-06T00:28:30.156Z,5.97
2018-07-06T00:31:09.018Z,5.08
2018-07-06T00:33:42.467Z,5.53
2018-07-06T00:36:21.338Z,6.10
2018-07-06T00:38:54.421Z,6.83
2018-07-06T00:41:33.333Z,7.15
2018-07-06T00:44:12.381Z,7.00
2018-07-06T00:46:51.367Z,5.97
2018-07-06T00:49:30.360Z,5.37
2018-07-06T00:52:09.284Z,6.00
2018-07-06T00:54:48.431Z,4.83
2018-07-06T00:57:27.368Z,3.95
2018-07-06T01:00:06.469Z,4.78
2018-07-06T01:02:45.356Z,3.98
2018-07-06T01:05:24.220Z,3.70
2018-07-06T01:08:03.309Z,3.45
2018-07-06T01:10:42.200Z,3.55
2018-07-06T01:13:21.110Z,3.02
2018-07-06T01:16:00.239Z,3.85
2018-07-06T01:18:39.146Z,4.40
2018-07-06T01:21:18.335Z,4.00
2018-07-06T01:23:57.176Z,3.83
2018-07-06T01:26:36.165Z,3.60
2018-07-06T01:29:15.075Z,3.55
2018-07-06T01:31:54.173Z,4.08
2018-07-06T01:34:33.062Z,3.33
2018-07-06T01:37:12.038Z,3.65
2018-07-06T01:39:50.853Z,5.37
2018-07-06T01:42:29.824Z,3.50
2018-07-06T01:45:08.707Z,3.27
2018-07-06T01:47:47.884Z,2.55
2018-07-06T01:50:26.800Z,2.72
2018-07-06T01:53:05.891Z,2.55
2018-07-06T01:55:44.651Z,2.75
2018-07-06T01:58:23.639Z,2.70
2018-07-06T02:01:02.680Z,3.47
2018-07-06T02:03:41.601Z,4.58
2018-07-06T02:06:20.369Z,5.47
2018-07-06T02:08:59.526Z,3.55
2018-07-06T02:11:38.421Z,3.62
2018-07-06T02:14:17.216Z,4.00
2018-07-06T02:16:56.491Z,3.77
2018-07-06T02:19:35.460Z,2.65
2018-07-06T02:22:14.542Z,2.65
2018-07-06T02:24:47.544Z,2.62
2018-07-06T02:27:26.523Z,2.47
2018-07-06T02:30:05.688Z,3.80
2018-07-06T02:32:44.652Z,2.95
2018-07-06T02:35:23.704Z,2.60
2018-07-06T02:38:02.669Z,2.52
2018-07-06T02:40:41.804Z,3.27
2018-07-06T02:43:20.820Z,2.90
2018-07-06T02:45:53.956Z,3.67
2018-07-06T02:48:32.845Z,3.98
2018-07-06T02:51:12.149Z,3.60
2018-07-06T02:53:51.024Z,3.22
2018-07-06T02:56:30.128Z,3.27
2018-07-06T02:59:03.162Z,3.40
2018-07-06T03:01:42.045Z,4.58
2018-07-06T03:04:20.926Z,7.30
2018-07-06T03:07:00.193Z,6.78
2018-07-06T03:09:39.321Z,5.30
2018-07-06T03:12:18.109Z,4.87
2018-07-06T03:14:57.452Z,4.03
2018-07-06T03:17:36.368Z,3.33
2018-07-06T03:20:15.518Z,2.65
2018-07-06T03:22:54.870Z,2.95
2018-07-06T03:25:33.683Z,2.30
2018-07-06T03:28:12.856Z,2.67
2018-07-06T03:30:51.865Z,2.33
2018-07-06T03:33:30.789Z,4.37
2018-07-06T03:36:09.757Z,3.90
2018-07-06T03:38:48.872Z,3.80
2018-07-06T03:41:27.786Z,4.42
2018-07-06T03:44:06.791Z,4.55
2018-07-06T03:46:45.769Z,3.17
2018-07-06T03:49:24.720Z,3.83
2018-07-06T03:52:03.847Z,3.87
2018-07-06T03:54:42.686Z,4.55
2018-07-06T03:57:21.641Z,5.40
2018-07-06T04:00:00.928Z,3.95
2018-07-06T04:02:39.727Z,3.55
2018-07-06T04:05:18.764Z,3.42
2018-07-06T04:07:57.676Z,3.10
2018-07-06T04:10:36.634Z,3.02
2018-07-06T04:13:15.609Z,3.35
2018-07-06T04:15:54.531Z,3.40
2018-07-06T04:18:33.645Z,3.70
2018-07-06T04:21:12.768Z,3.27
2018-07-06T04:23:51.736Z,4.20
2018-07-06T04:26:30.656Z,4.50
2018-07-06T04:29:09.555Z,4.90
2018-07-06T04:31:48.508Z,6.22
2018-07-06T04:34:27.676Z,7.25
2018-07-06T04:37:06.649Z,6.25
2018-07-06T04:39:45.612Z,4.83
2018-07-06T04:42:24.494Z,4.28
2018-07-06T04:45:03.599Z,6.05
2018-07-06T04:47:42.668Z,6.53
2018-07-06T04:50:22.240Z,5.12
2018-07-06T04:53:01.376Z,5.47
2018-07-06T04:55:40.273Z,4.00
2018-07-06T04:58:19.097Z,4.70
2018-07-06T05:00:58.001Z,4.55
2018-07-06T05:03:36.989Z,3.27
2018-07-06T05:06:15.997Z,2.95
2018-07-06T05:08:54.957Z,3.25
2018-07-06T05:11:33.891Z,3.20
2018-07-06T05:14:12.712Z,5.35
2018-07-06T05:16:52.874Z,6.92
2018-07-06T05:19:32.570Z,7.95
2018-07-06T05:22:11.740Z,7.28
2018-07-06T05:24:50.813Z,6.53
2018-07-06T05:27:29.809Z,6.53
2018-07-06T05:30:09.060Z,7.03
2018-07-06T05:32:48.047Z,6.53
2018-07-06T05:35:27.085Z,7.62
2018-07-06T05:38:06.035Z,7.53
2018-07-06T05:40:45.054Z,10.23
2018-07-06T05:43:24.186Z,8.05
2018-07-06T05:46:03.441Z,8.73
2018-07-06T05:48:42.397Z,10.68
2018-07-06T05:51:15.714Z,9.78
2018-07-06T05:53:54.727Z,8.40
2018-07-06T05:56:33.871Z,6.62
2018-07-06T05:59:12.732Z,6.45
2018-07-06T06:01:51.854Z,7.78
2018-07-06T06:04:30.718Z,7.15
2018-07-06T06:07:09.930Z,6.78
2018-07-06T06:09:37.491Z,6.67
2018-07-06T06:12:05.060Z,5.50
2018-07-06T06:14:32.921Z,5.05
2018-07-06T06:17:00.650Z,5.10
2018-07-06T06:19:28.272Z,4.12
2018-07-06T06:21:56.009Z,3.67
2018-07-06T06:24:23.561Z,4.25
2018-07-06T06:26:51.216Z,3.33
2018-07-06T06:29:19.432Z,3.47
2018-07-06T06:31:47.253Z,3.00
2018-07-06T06:34:14.878Z,3.25
2018-07-06T06:36:42.585Z,4.45
2018-07-06T06:39:10.281Z,6.20
2018-07-06T06:41:37.900Z,4.25
2018-07-06T06:44:05.544Z,4.00
2018-07-06T06:46:33.158Z,3.25
2018-07-06T06:49:01.030Z,5.12
2018-07-06T06:51:28.788Z,4.00
2018-07-06T06:53:56.441Z,5.33
2018-07-06T06:56:23.996Z,4.70
2018-07-06T06:58:52.006Z,6.12
2018-07-06T07:01:19.721Z,6.55
2018-07-06T07:03:47.256Z,4.60
2018-07-06T07:06:15.049Z,5.42
2018-07-06T07:08:42.586Z,4.60
2018-07-06T07:11:10.551Z,4.00
2018-07-06T07:13:38.249Z,4.50
2018-07-06T07:16:06.229Z,6.40
2018-07-06T07:18:34.095Z,6.55
2018-07-06T07:21:01.824Z,16.27
2018-07-06T07:23:29.551Z,14.50
2018-07-06T07:25:58.211Z,17.40
2018-07-06T07:28:25.821Z,23.52
2018-07-06T07:30:53.713Z,10.45
2018-07-06T07:33:21.421Z,11.73
2018-07-06T07:35:49.058Z,12.90
2018-07-06T07:38:16.859Z,17.02
2018-07-06T07:40:44.508Z,22.55
2018-07-06T07:43:12.137Z,25.85
2018-07-06T07:45:39.719Z,18.98
2018-07-06T07:48:07.510Z,22.60
2018-07-06T07:50:35.500Z,25.20
2018-07-06T07:53:14.555Z,19.52
2018-07-06T07:55:42.154Z,18.95
2018-07-06T07:58:09.793Z,22.03
2018-07-06T08:00:37.576Z,22.13
2018-07-06T08:03:05.161Z,22.93
2018-07-06T08:05:32.789Z,22.67
2018-07-06T08:08:00.860Z,24.87
2018-07-06T08:10:28.520Z,28.73
2018-07-06T08:12:56.098Z,31.12
2018-07-06T08:15:23.705Z,37.73
2018-07-06T08:17:51.439Z,45.17
2018-07-06T08:20:19.054Z,41.88
2018-07-06T08:22:46.645Z,43.10
2018-07-06T08:25:14.240Z,47.43
2018-07-06T08:27:41.804Z,39.53
2018-07-06T08:30:09.520Z,43.20
2018-07-06T08:32:37.165Z,37.73
2018-07-06T08:35:16.425Z,36.68
2018-07-06T08:38:00.293Z,45.38
2018-07-06T08:40:28.237Z,42.20
2018-07-06T08:42:57.350Z,42.08
2018-07-06T08:45:25.442Z,39.38
2018-07-06T08:47:53.021Z,36.03
2018-07-06T08:50:20.981Z,39.53
2018-07-06T08:52:49.649Z,40.10
2018-07-06T08:55:17.741Z,47.90
2018-07-06T08:57:46.568Z,39.55
2018-07-06T09:00:14.149Z,42.23
2018-07-06T09:02:42.027Z,42.67
2018-07-06T09:05:10.393Z,50.40
2018-07-06T09:07:38.394Z,40.58
2018-07-06T09:10:06.098Z,45.98
2018-07-06T09:12:33.742Z,36.75
2018-07-06T09:15:02.097Z,42.73
2018-07-06T09:17:29.845Z,37.67
2018-07-06T09:19:58.298Z,42.23
2018-07-06T09:22:25.804Z,47.55
2018-07-06T09:24:54.642Z,48.17
2018-07-06T09:27:22.406Z,42.83
2018-07-06T09:29:50.135Z,39.15
2018-07-06T09:32:17.766Z,41.68
2018-07-06T09:34:45.418Z,40.90
2018-07-06T09:37:13.009Z,48.08
2018-07-06T09:39:41.292Z,45.45
2018-07-06T09:42:08.877Z,43.95
2018-07-06T09:44:36.457Z,40.43
2018-07-06T09:47:05.134Z,43.78
2018-07-06T09:49:32.904Z,40.25
2018-07-06T09:52:00.789Z,40.58
2018-07-06T09:54:28.341Z,43.90
2018-07-06T09:56:56.013Z,37.35
2018-07-06T09:59:23.625Z,35.17
2018-07-06T10:01:51.367Z,39.10
2018-07-06T10:04:19.074Z,37.53
2018-07-06T10:06:46.914Z,31.82
2018-07-06T10:09:14.461Z,37.35
2018-07-06T10:11:41.972Z,33.28
2018-07-06T10:14:09.494Z,30.60
2018-07-06T10:16:37.133Z,28.47
2018-07-06T10:19:06.482Z,25.08
2018-07-06T10:21:34.509Z,26.05
2018-07-06T10:24:02.253Z,26.82
2018-07-06T10:26:30.020Z,27.25
2018-07-06T10:30:09.227Z,29.87
2018-07-06T10:32:38.734Z,27.52
2018-07-06T10:35:06.433Z,24.05
2018-07-06T10:37:34.312Z,23.62
2018-07-06T10:40:02.060Z,24.10
2018-07-06T10:42:29.877Z,25.20
2018-07-06T10:44:57.546Z,23.92
2018-07-06T10:47:25.233Z,22.17
2018-07-06T10:49:52.758Z,26.77
2018-07-06T10:52:20.509Z,18.45
2018-07-06T10:54:48.833Z,23.45
2018-07-06T10:57:16.596Z,17.52
2018-07-06T10:59:44.286Z,14.80
2018-07-06T11:02:15.196Z,18.03
2018-07-06T11:04:44.025Z,18.95
2018-07-06T11:07:12.234Z,19.40
2018-07-06T11:09:41.869Z,17.52
2018-07-06T11:12:10.539Z,16.95
2018-07-06T11:14:38.835Z,13.45
2018-07-06T11:17:06.930Z,15.78
2018-07-06T11:19:36.861Z,15.88
2018-07-06T11:22:06.124Z,15.60
2018-07-06T11:24:34.788Z,16.87
2018-07-06T11:27:02.397Z,14.38
2018-07-06T11:29:31.055Z,11.20
2018-07-06T11:31:59.204Z,12.15
2018-07-06T11:34:27.583Z,10.75
2018-07-06T11:36:56.589Z,11.57
2018-07-06T11:39:27.503Z,10.63
2018-07-06T11:41:55.958Z,12.80
2018-07-06T11:44:24.372Z,12.00
2018-07-06T11:46:52.628Z,12.18
2018-07-06T11:49:21.215Z,13.30
2018-07-06T11:51:50.291Z,13.40
2018-07-06T11:54:18.976Z,13.62
2018-07-06T11:56:47.905Z,14.75
2018-07-06T11:59:15.937Z,14.80
2018-07-06T12:01:44.262Z,13.93
2018-07-06T12:04:12.622Z,12.30
2018-07-06T12:06:40.758Z,9.98
2018-07-06T12:09:09.360Z,11.68
2018-07-06T12:11:37.613Z,11.43
2018-07-06T12:14:06.264Z,10.90
2018-07-06T12:16:34.615Z,10.55
2018-07-06T12:19:03.560Z,10.18
2018-07-06T12:21:31.822Z,12.98
2018-07-06T12:23:59.662Z,7.53
2018-07-06T12:26:28.647Z,8.35
2018-07-06T12:28:57.321Z,8.53
2018-07-06T12:31:27.030Z,7.62
2018-07-06T12:33:56.260Z,8.08
2018-07-06T12:36:24.545Z,8.58
2018-07-06T12:38:52.936Z,9.25
2018-07-06T12:41:21.383Z,13.90
2018-07-06T12:43:49.041Z,15.28
2018-07-06T12:46:16.663Z,13.95
2018-07-06T12:48:44.482Z,16.93
2018-07-06T12:51:13.704Z,14.93
2018-07-06T12:53:42.248Z,15.65
2018-07-06T12:56:09.920Z,13.95
2018-07-06T12:58:37.686Z,18.92
2018-07-06T13:01:05.313Z,19.70
2018-07-06T13:03:32.969Z,19.37
2018-07-06T13:06:00.748Z,19.10
2018-07-06T13:08:28.392Z,18.05
2018-07-06T13:10:55.949Z,18.23
2018-07-06T13:13:23.597Z,19.23
2018-07-06T13:15:52.372Z,16.35
2018-07-06T13:18:19.995Z,17.70
2018-07-06T13:20:47.670Z,13.72
2018-07-06T13:23:15.274Z,12.28
2018-07-06T13:25:43.335Z,11.38
2018-07-06T13:28:10.965Z,12.05
2018-07-06T13:30:38.854Z,12.60
2018-07-06T13:33:06.466Z,11.80
2018-07-06T13:35:34.061Z,12.30
2018-07-06T13:38:01.829Z,11.93
2018-07-06T13:40:29.541Z,14.05
2018-07-06T13:42:57.286Z,12.78
2018-07-06T13:45:26.100Z,11.63
2018-07-06T13:47:54.394Z,12.60
2018-07-06T13:50:22.049Z,11.20
2018-07-06T13:52:49.652Z,13.03
2018-07-06T13:55:17.245Z,11.60
2018-07-06T13:57:45.481Z,11.38
2018-07-06T14:00:13.353Z,10.15
2018-07-06T14:02:40.944Z,9.98
2018-07-06T14:05:08.620Z,8.20
2018-07-06T14:07:36.381Z,7.28
2018-07-06T14:10:04.993Z,6.97
2018-07-06T14:12:32.604Z,6.60
2018-07-06T14:15:00.268Z,6.60
2018-07-06T14:17:27.850Z,5.95
2018-07-06T14:19:55.561Z,5.50
2018-07-06T14:22:23.648Z,4.85
2018-07-06T14:24:51.310Z,4.70
2018-07-06T14:27:19.898Z,4.20
2018-07-06T14:29:48.230Z,4.58
2018-07-06T14:32:19.625Z,4.47
2018-07-06T14:34:48.159Z,4.10
2018-07-06T14:37:15.946Z,4.08
2018-07-06T14:39:43.659Z,4.28
2018-07-06T14:42:11.294Z,4.47
2018-07-06T14:44:39.031Z,3.47
2018-07-06T14:47:06.723Z,4.12
2018-07-06T14:49:35.596Z,4.17
2018-07-06T14:52:05.397Z,4.65
2018-07-06T14:54:33.294Z,4.62
2018-07-06T14:57:01.073Z,4.22
2018-07-06T14:59:29.051Z,3.85
2018-07-06T15:01:58.211Z,4.17
2018-07-06T15:04:25.893Z,4.05
2018-07-06T15:06:53.625Z,3.83
2018-07-06T15:09:22.471Z,4.70
2018-07-06T15:11:50.656Z,4.45
2018-07-06T15:14:18.228Z,4.80
2018-07-06T15:16:45.858Z,4.20
2018-07-06T15:19:14.767Z,4.10
2018-07-06T15:21:42.708Z,3.25
2018-07-06T15:24:10.319Z,4.00
2018-07-06T15:26:37.902Z,4.20
2018-07-06T15:29:05.514Z,4.37
2018-07-06T15:31:33.292Z,3.70
2018-07-06T15:34:01.214Z,4.40
2018-07-06T15:36:28.775Z,4.90
2018-07-06T15:38:56.412Z,4.75
2018-07-06T15:41:24.237Z,3.83
2018-07-06T15:43:51.950Z,4.03
2018-07-06T15:46:19.550Z,3.65
2018-07-06T15:48:47.299Z,4.30
2018-07-06T15:51:14.951Z,3.58
2018-07-06T15:53:43.093Z,4.05
2018-07-06T15:56:10.785Z,4.30
2018-07-06T15:58:38.585Z,4.33
2018-07-06T16:01:06.859Z,4.00
2018-07-06T16:03:34.845Z,3.65
2018-07-06T16:06:02.605Z,3.65
2018-07-06T16:08:30.152Z,3.72
2018-07-06T16:10:57.788Z,4.20
2018-07-06T16:13:25.668Z,4.15
2018-07-06T16:15:53.329Z,4.03
2018-07-06T16:18:20.912Z,4.22
2018-07-06T16:20:48.559Z,4.03
2018-07-06T16:23:16.133Z,3.75
2018-07-06T16:25:43.860Z,3.60
2018-07-06T16:28:12.505Z,3.60
2018-07-06T16:30:40.064Z,4.08
2018-07-06T16:33:07.617Z,3.67
2018-07-06T16:35:35.545Z,3.90
2018-07-06T16:38:03.405Z,3.80
2018-07-06T16:40:30.995Z,3.30
2018-07-06T16:42:58.643Z,3.40
2018-07-06T16:45:26.252Z,3.42
2018-07-06T16:47:53.957Z,2.98
2018-07-06T16:50:21.506Z,3.22
2018-07-06T16:52:49.208Z,2.92
2018-07-06T16:55:18.803Z,2.40
2018-07-06T16:57:46.393Z,2.15
2018-07-06T17:00:14.313Z,2.35
2018-07-06T17:02:41.998Z,2.50
2018-07-06T17:05:09.581Z,2.52
2018-07-06T17:07:37.214Z,2.45
2018-07-06T17:10:04.945Z,3.05
2018-07-06T17:12:32.750Z,3.08
2018-07-06T17:15:00.669Z,3.30
2018-07-06T17:17:28.236Z,3.12
2018-07-06T17:19:55.801Z,2.83
2018-07-06T17:22:23.519Z,3.05
2018-07-06T17:24:51.094Z,2.60
2018-07-06T17:27:18.560Z,2.90
2018-07-06T17:29:46.165Z,3.33
2018-07-06T17:32:14.271Z,3.10
2018-07-06T17:34:41.812Z,3.10
2018-07-06T17:37:09.637Z,2.72
2018-07-06T17:39:37.154Z,2.90
2018-07-06T17:42:04.825Z,2.50
2018-07-06T17:44:32.341Z,2.98
2018-07-06T17:46:59.949Z,3.08
2018-07-06T17:49:27.486Z,2.95
2018-07-06T17:51:55.100Z,2.50
2018-07-06T17:54:22.600Z,2.98
2018-07-06T17:56:50.402Z,2.90
2018-07-06T17:59:17.984Z,2.95
2018-07-06T18:01:45.883Z,3.20
2018-07-06T18:04:13.727Z,3.35
2018-07-06T18:06:43.615Z,3.15
2018-07-06T18:09:11.187Z,3.17
2018-07-06T18:11:38.713Z,3.20
2018-07-06T18:14:06.255Z,3.15
2018-07-06T18:16:33.778Z,3.33
2018-07-06T18:19:01.344Z,3.58
2018-07-06T18:21:28.927Z,3.10
2018-07-06T18:23:56.438Z,3.60
2018-07-06T18:26:23.990Z,3.97
2018-07-06T18:28:51.553Z,3.87
2018-07-06T18:31:19.172Z,4.00
2018-07-06T18:33:46.753Z,3.90
2018-07-06T18:36:14.287Z,3.50
2018-07-06T18:38:42.026Z,3.40
2018-07-06T18:41:09.604Z,3.60
2018-07-06T18:43:37.156Z,3.72
2018-07-06T18:46:04.780Z,3.37
2018-07-06T18:48:32.292Z,3.72
2018-07-06T18:50:59.810Z,3.85
2018-07-06T18:53:27.982Z,4.20
2018-07-06T18:55:55.891Z,3.60
2018-07-06T18:58:23.409Z,3.30
2018-07-06T19:00:51.302Z,3.35
2018-07-06T19:03:18.970Z,3.72
2018-07-06T19:05:46.642Z,3.33
2018-07-06T19:08:14.512Z,5.30
2018-07-06T19:10:42.095Z,6.80
2018-07-06T19:13:09.658Z,9.80
2018-07-06T19:15:37.443Z,10.08
2018-07-06T19:18:05.088Z,12.82
2018-07-06T19:20:32.749Z,11.57
2018-07-06T19:23:00.465Z,11.38
2018-07-06T19:25:28.008Z,10.78
2018-07-06T19:27:55.825Z,10.23
2018-07-06T19:30:23.643Z,12.63
2018-07-06T19:32:51.943Z,11.25
2018-07-06T19:35:19.659Z,8.68
2018-07-06T19:37:47.385Z,3.95
2018-07-06T19:40:15.301Z,2.42
2018-07-06T19:42:43.631Z,2.12
2018-07-06T19:45:11.672Z,5.65
2018-07-06T19:47:39.274Z,2.92
2018-07-06T19:50:06.922Z,2.80
2018-07-06T19:52:34.469Z,2.80
2018-07-06T19:55:02.501Z,3.45
2018-07-06T19:57:30.038Z,5.17
2018-07-06T19:59:57.635Z,7.53
2018-07-06T20:02:25.176Z,6.70
2018-07-06T20:04:53.181Z,8.25
2018-07-06T20:07:20.845Z,7.12
2018-07-06T20:09:48.390Z,6.92
2018-07-06T20:12:16.028Z,10.53
2018-07-06T20:14:43.701Z,8.98
2018-07-06T20:17:11.262Z,8.68
2018-07-06T20:19:38.821Z,8.60
2018-07-06T20:22:06.292Z,9.38
2018-07-06T20:24:33.837Z,8.83
2018-07-06T20:27:01.637Z,7.92
2018-07-06T20:29:29.158Z,8.88
2018-07-06T20:31:56.845Z,8.88
2018-07-06T20:34:24.412Z,8.68
2018-07-06T20:36:52.130Z,10.15
2018-07-06T20:39:19.804Z,11.35
2018-07-06T20:41:47.388Z,13.60
2018-07-06T20:44:15.085Z,12.30
2018-07-06T20:46:42.618Z,10.20
2018-07-06T20:49:10.392Z,11.88
2018-07-06T20:51:37.972Z,9.30
2018-07-06T20:54:05.537Z,8.98
2018-07-06T20:56:33.081Z,13.98
2018-07-06T20:59:00.681Z,10.78
2018-07-06T21:01:28.206Z,10.28
2018-07-06T21:03:55.909Z,9.43
2018-07-06T21:06:23.696Z,9.08
2018-07-06T21:08:51.732Z,9.25
2018-07-06T21:11:19.285Z,9.90
2018-07-06T21:13:47.185Z,9.93
2018-07-06T21:16:14.835Z,9.35
2018-07-06T21:18:42.314Z,9.28
2018-07-06T21:21:09.952Z,9.05
2018-07-06T21:23:37.693Z,9.18
2018-07-06T21:26:05.435Z,8.45
2018-07-06T21:28:33.229Z,7.45
2018-07-06T21:31:00.753Z,6.85
2018-07-06T21:33:28.498Z,6.03
2018-07-06T21:35:56.153Z,6.55
2018-07-06T21:38:23.669Z,6.30
2018-07-06T21:40:51.461Z,6.28
2018-07-06T21:43:19.118Z,6.95
2018-07-06T21:45:46.731Z,5.70
2018-07-06T21:48:14.320Z,5.83
2018-07-06T21:50:41.973Z,5.87
2018-07-06T21:53:09.492Z,5.42
2018-07-06T21:55:37.001Z,5.75
2018-07-06T21:58:04.867Z,5.55
2018-07-06T22:00:39.512Z,5.55
2018-07-06T22:03:08.617Z,5.80
2018-07-06T22:05:36.663Z,5.80
2018-07-06T22:08:05.157Z,5.93
2018-07-06T22:10:33.373Z,4.80
2018-07-06T22:13:01.088Z,5.33
2018-07-06T22:15:33.986Z,5.35
2018-07-06T22:18:01.886Z,4.92
2018-07-06T22:20:29.708Z,6.28
2018-07-06T22:22:57.242Z,5.33
2018-07-06T22:25:24.842Z,6.33
2018-07-06T22:27:52.410Z,4.80
2018-07-06T22:30:20.289Z,4.58
2018-07-06T22:32:47.863Z,5.00
2018-07-06T22:35:15.611Z,4.33
2018-07-06T22:37:43.513Z,3.95
2018-07-06T22:40:11.059Z,4.33
2018-07-06T22:42:38.825Z,4.00
2018-07-06T22:45:06.414Z,3.15
2018-07-06T22:47:33.994Z,5.62
2018-07-06T22:50:01.761Z,4.60
2018-07-06T22:52:29.355Z,4.05
2018-07-06T23:04:02.166Z,5.55
2018-07-06T23:06:29.702Z,4.70
2018-07-06T23:08:57.324Z,4.62
2018-07-06T23:11:24.883Z,4.35
2018-07-06T23:13:52.477Z,5.05
2018-07-06T23:16:20.097Z,5.28
2018-07-06T23:18:47.809Z,4.28
2018-07-06T23:21:16.047Z,4.62
2018-07-06T23:23:43.695Z,3.90
2018-07-06T23:26:11.542Z,4.37
2018-07-06T23:28:39.132Z,3.67
2018-07-06T23:31:06.710Z,4.20
2018-07-06T23:33:34.306Z,4.40
2018-07-06T23:36:02.796Z,3.45
2018-07-06T23:38:30.901Z,4.70
2018-07-06T23:40:58.820Z,4.08
2018-07-06T23:43:26.741Z,3.70
2018-07-06T23:45:54.416Z,3.40
2018-07-06T23:48:22.228Z,3.00
2018-07-06T23:50:49.802Z,3.87
2018-07-06T23:53:17.667Z,2.95
2018-07-06T23:55:45.440Z,3.95
2018-07-06T23:58:12.897Z,3.33
